Flight Track Log - Related Links

Times and Time Zones

All times are in EDT time to prevent confusion due to time zone crossing. See the FDY2406 flight status page for this flight to view local times or setup timezone preferences in your user account.

Time Position Orientation Groundspeed Altitude Reporting Facility
EDT Latitude Longitude Course Direction KTS MPH feet Rate Location/Type
Mon 04:07:33 PM 29.9708 -95.3522 155° Southeast 118 136 400  Level Houston Center
Mon 04:08:34 PM 29.9333 -95.3325 155° Southeast 137 158 1,400 848 Climbing Houston Center
Mon 04:09:12 PM 29.9122 -95.3211 155° Southeast 141 162 1,800 716 Climbing Houston Center
Mon 04:09:41 PM 29.8917 -95.3353 211° Southwest 157 181 2,200 667 Climbing Houston Center
Mon 04:10:15 PM 29.8836 -95.3536 243° Southwest 153 176 2,500 689 Climbing Houston Center
Mon 04:10:42 PM 29.8811 -95.3797 264° West 147 169 2,900 484 Climbing Houston Center
Mon 04:11:17 PM 29.8825 -95.4022 274° West 151 174 3,000  Climbing Houston Center
Mon 04:11:37 PM 29.8811 -95.4281 266° West 171 197 2,900 -97 Descending Houston Center
Mon 04:12:19 PM 29.8669 -95.4539 238° Southwest 167 192 2,900  Level Houston Center
Mon 04:12:38 PM 29.8519 -95.4747 230° Southwest 184 212 2,900 97 Level Houston Center
Mon 04:13:21 PM 29.8311 -95.5058 232° Southwest 173 199 3,000 98 Climbing Houston Center
Mon 04:13:39 PM 29.8222 -95.5194 233° Southwest 171 197 3,000  Level Houston Center
Mon 04:14:23 PM 29.8033 -95.5497 234° Southwest 172 198 3,000  Level Houston Center
Mon 04:14:41 PM 29.7908 -95.5664 229° Southwest 173 199 3,000  Level Houston Center
Mon 04:15:25 PM 29.7739 -95.5947 235° Southwest 174 200 3,000  Level Houston Center
Mon 04:15:42 PM 29.7636 -95.6131 237° Southwest 177 204 3,000 -97 Level Houston Center
Mon 04:16:27 PM 29.7469 -95.6419 236° Southwest 177 204 2,900 -98 Descending Houston Center
Mon 04:16:43 PM 29.7361 -95.6594 235° Southwest 176 203 2,900 468 Level Houston Center
Mon 04:17:44 PM 29.7089 -95.7058 236° Southwest 170 196 3,500 611 Climbing Houston Center
Mon 04:18:31 PM 29.6878 -95.7400 235° Southwest 168 193 4,000 716 Climbing Houston Center
Mon 04:18:51 PM 29.6775 -95.7528 227° Southwest 163 188 4,300 571 Climbing Houston Center
Mon 04:19:34 PM 29.6553 -95.7761 222° Southwest 164 189 4,600 545 Climbing Houston Center
Mon 04:19:46 PM 29.6447 -95.7856 218° Southwest 175 201 4,800 581 Climbing Houston Center
Mon 04:20:36 PM 29.6178 -95.8106 219° Southwest 169 194 5,200 689 Climbing Houston Center
Mon 04:20:47 PM 29.6078 -95.8211 223° Southwest 174 200 5,500 575 Climbing Houston Center
Mon 04:21:49 PM 29.5692 -95.8592 221° Southwest 172 198 5,900 265 Climbing Houston Center
Mon 04:22:40 PM 29.5461 -95.8886 228° Southwest 178 205 6,000 53 Climbing Houston Center
Mon 04:23:42 PM 29.5139 -95.9356 232° Southwest 185 213 6,000  Level Houston Center
Mon 04:24:44 PM 29.4792 -95.9933 235° Southwest 184 212 6,000  Level Houston Center
Mon 04:25:46 PM 29.4508 -96.0350 232° Southwest 184 212 6,000  Level Houston Center
Mon 04:26:48 PM 29.4142 -96.0928 234° Southwest 186 214 6,000 -48 Level Houston Center
Mon 04:27:50 PM 29.3819 -96.1403 232° Southwest 188 216 5,900  Descending Houston Center
Mon 04:28:53 PM 29.3486 -96.1886 232° Southwest 191 220 6,000 48 Climbing Houston Center
Mon 04:29:55 PM 29.3133 -96.2342 228° Southwest 191 220 6,000  Level Houston Center
Mon 04:30:57 PM 29.2817 -96.2822 233° Southwest 190 219 6,000  Level Houston Center
Mon 04:31:59 PM 29.2489 -96.3317 233° Southwest 193 222 6,000 48 Level Houston Center
Mon 04:33:01 PM 29.2158 -96.3783 231° Southwest 190 219 6,100 48 Climbing Houston Center
Mon 04:34:03 PM 29.1772 -96.4367 233° Southwest 191 220 6,100  Level Houston Center
Mon 04:35:05 PM 29.1431 -96.4831 230° Southwest 190 219 6,100 -145 Level Houston Center
Mon 04:36:07 PM 29.1061 -96.5300 228° Southwest 195 224 5,800 -387 Descending Houston Center
Mon 04:37:09 PM 29.0633 -96.5744 222° Southwest 203 234 5,300 -528 Descending Houston Center
Mon 04:38:12 PM 29.0194 -96.6200 222° Southwest 210 242 4,700 -576 Descending Houston Center
Mon 04:39:14 PM 28.9778 -96.6664 224° Southwest 210 242 4,100 -629 Descending Houston Center
Mon 04:40:16 PM 28.9358 -96.7222 229° Southwest 201 231 3,400 -532 Descending Houston Center
Mon 04:41:18 PM 28.9017 -96.7681 230° Southwest 195 224 3,000 -484 Descending Houston Center
Mon 04:42:20 PM 28.8694 -96.8131 231° Southwest 189 217 2,400 -435 Descending Houston Center
Mon 04:43:22 PM 28.8408 -96.8517 230° Southwest 177 204 2,100 -581 Descending Houston Center
Mon 04:44:24 PM 28.8236 -96.8844 239° Southwest 152 175 1,200 -871 Descending Houston Center

Login

Don't have an account? Register now (free) for customized features, flight alerts, and more!